Time;durP1;ratioP1;P1;durP2;ratioP2;P2;SDS_P1;SDS_P2;PMS_P1;PMS_P2;Temp;Humidity;BMP_temperature;BMP_pressure;BME280_temperature;BME280_humidity;BME280_pressure;Samples;Min_cycle;Max_cycle;Signal;HPM_P1;HPM_P2
2023/05/16 00:00:53;;;;;;;8.97;7.50;;;;;;;16.56;58.87;97131.41;5011540;28;20270;-70
2023/05/16 00:03:19;;;;;;;8.00;7.20;;;;;;;16.53;59.00;97126.50;5015717;28;20581;-70
2023/05/16 00:05:45;;;;;;;8.37;7.57;;;;;;;16.49;59.08;97122.63;5010683;28;20287;-70
2023/05/16 00:08:11;;;;;;;7.40;6.80;;;;;;;16.48;59.25;97129.72;5010574;28;20580;-69
2023/05/16 00:10:36;;;;;;;9.20;7.40;;;;;;;16.42;59.45;97131.31;5010752;28;20899;-69
2023/05/16 00:13:02;;;;;;;11.60;6.60;;;;;;;16.45;59.26;97126.66;5014752;28;20203;-68
2023/05/16 00:15:28;;;;;;;9.13;7.37;;;;;;;16.45;59.41;97124.00;5010538;28;20197;-70
2023/05/16 00:17:58;;;;;;;8.03;7.33;;;;;;;16.47;59.23;97119.34;5010952;28;20283;-70
2023/05/16 00:20:27;;;;;;;8.37;7.50;;;;;;;16.39;59.62;97118.44;5042525;28;20521;-70
2023/05/16 00:22:53;;;;;;;14.47;8.60;;;;;;;16.35;59.91;97127.81;5020784;28;20519;-71
2023/05/16 00:25:19;;;;;;;15.83;12.00;;;;;;;16.41;59.48;97121.72;5010644;28;20442;-70
2023/05/16 00:27:45;;;;;;;13.87;11.50;;;;;;;16.41;59.34;97119.09;5010675;28;20518;-70
2023/05/16 00:30:10;;;;;;;15.90;14.30;;;;;;;16.46;59.30;97123.00;5009697;28;20244;-69
2023/05/16 00:32:36;;;;;;;16.83;14.33;;;;;;;16.46;59.11;97112.41;5010502;28;20204;-69
2023/05/16 00:35:02;;;;;;;20.50;15.87;;;;;;;16.50;59.13;97116.31;5010114;28;20276;-68
2023/05/16 00:37:27;;;;;;;17.27;15.23;;;;;;;16.55;58.74;97113.91;5018683;28;20570;-71
2023/05/16 00:39:53;;;;;;;19.43;16.00;;;;;;;16.61;58.69;97114.97;5010173;28;20481;-70
2023/05/16 00:42:19;;;;;;;18.00;15.40;;;;;;;16.59;58.24;97101.94;5016881;28;20653;-70
2023/05/16 00:44:46;;;;;;;16.07;14.30;;;;;;;16.55;58.66;97111.25;5012055;28;20188;-70
2023/05/16 00:47:11;;;;;;;17.60;15.67;;;;;;;16.56;58.81;97120.81;5020024;28;21014;-70
2023/05/16 00:49:37;;;;;;;18.70;15.60;;;;;;;16.55;58.84;97116.53;5013406;28;20475;-70
2023/05/16 00:52:02;;;;;;;19.00;15.70;;;;;;;16.53;58.79;97114.09;5009376;28;20188;-69
2023/05/16 00:54:29;;;;;;;20.90;16.60;;;;;;;16.58;58.74;97105.59;5008377;28;20188;-70
2023/05/16 00:56:57;;;;;;;21.70;16.73;;;;;;;16.56;58.55;97115.53;5010202;28;20667;-70
2023/05/16 00:59:23;;;;;;;19.67;16.40;;;;;;;16.57;58.38;97119.81;5018844;28;20486;-70
2023/05/16 01:01:49;;;;;;;18.93;15.80;;;;;;;16.54;58.81;97120.19;5018280;28;20439;-70
2023/05/16 01:04:16;;;;;;;18.53;15.80;;;;;;;16.58;58.91;97121.47;5016885;28;20211;-69
2023/05/16 01:06:42;;;;;;;18.53;16.53;;;;;;;16.64;58.40;97114.56;5015949;28;20907;-70
2023/05/16 01:09:08;;;;;;;24.13;18.13;;;;;;;16.63;58.26;97112.94;5017587;28;20526;-68
2023/05/16 01:12:08;;;;;;;20.20;16.37;;;;;;;16.62;58.37;97117.44;5009674;28;20563;-69
2023/05/16 01:15:09;;;;;;;22.70;16.77;;;;;;;16.62;58.17;97117.44;5002800;28;20573;-68
2023/05/16 01:17:48;;;;;;;24.43;18.03;;;;;;;16.63;58.27;97121.72;4980836;28;20846;-68
2023/05/16 01:20:29;;;;;;;20.73;16.60;;;;;;;16.69;58.16;97122.75;4996517;28;21010;-70
2023/05/16 01:23:06;;;;;;;21.53;17.00;;;;;;;16.67;58.15;97120.28;5004897;28;20431;-70
2023/05/16 01:25:44;;;;;;;22.70;17.73;;;;;;;16.67;58.17;97119.50;5009933;28;20439;-68
2023/05/16 01:28:09;;;;;;;26.97;18.27;;;;;;;16.69;57.98;97123.56;5010341;28;20427;-68
2023/05/16 01:30:38;;;;;;;26.47;18.40;;;;;;;16.67;58.00;97122.13;5008802;28;20454;-68
2023/05/16 01:33:03;;;;;;;24.07;18.73;;;;;;;16.62;58.03;97121.88;5006569;28;20213;-69
2023/05/16 01:35:29;;;;;;;21.57;18.13;;;;;;;16.60;58.31;97124.72;5008023;28;20944;-69
2023/05/16 01:38:08;;;;;;;26.00;18.70;;;;;;;16.55;58.21;97127.13;5011937;28;20231;-69
2023/05/16 01:40:45;;;;;;;24.73;18.80;;;;;;;16.56;58.48;97123.47;5012671;28;20447;-69
2023/05/16 01:43:13;;;;;;;24.50;19.33;;;;;;;16.45;58.76;97124.81;4991491;28;20526;-70
2023/05/16 01:45:46;;;;;;;23.13;19.63;;;;;;;16.36;59.14;97128.59;5008094;28;20423;-70
2023/05/16 01:48:17;;;;;;;27.80;20.50;;;;;;;16.35;59.12;97125.16;5007289;28;20475;-70
2023/05/16 01:50:47;;;;;;;28.10;21.53;;;;;;;16.28;59.11;97125.09;4991359;28;20509;-70
2023/05/16 01:53:21;;;;;;;28.23;22.93;;;;;;;16.30;59.29;97124.91;5007622;28;20438;-70
2023/05/16 01:55:50;;;;;;;27.60;23.30;;;;;;;16.34;59.14;97128.81;5009180;28;20435;-70
2023/05/16 01:58:22;;;;;;;35.57;23.10;;;;;;;16.33;58.97;97127.16;5007289;28;21248;-70
2023/05/16 02:00:48;;;;;;;29.27;23.70;;;;;;;16.25;59.25;97122.03;5007773;28;20459;-74
2023/05/16 02:03:13;;;;;;;34.80;24.80;;;;;;;16.24;59.36;97133.59;5013135;28;20469;-70
2023/05/16 02:05:39;;;;;;;30.80;24.37;;;;;;;16.20;59.36;97127.06;4958120;28;20202;-70
2023/05/16 02:08:05;;;;;;;34.67;24.90;;;;;;;16.12;59.60;97131.47;5006959;28;20665;-71
2023/05/16 02:10:30;;;;;;;32.33;24.10;;;;;;;16.10;59.74;97130.84;5011791;28;20208;-71
2023/05/16 02:12:56;;;;;;;31.47;23.90;;;;;;;16.05;60.08;97135.88;5016574;28;20327;-70
2023/05/16 02:15:22;;;;;;;33.23;24.17;;;;;;;16.07;60.14;97131.22;5007277;28;20738;-70
2023/05/16 02:17:47;;;;;;;29.63;23.43;;;;;;;16.12;59.77;97133.28;5012998;28;20514;-69
2023/05/16 02:20:13;;;;;;;32.30;24.13;;;;;;;16.18;59.67;97131.72;5006592;28;20278;-71
2023/05/16 02:22:38;;;;;;;34.63;24.87;;;;;;;16.18;59.37;97132.53;5008819;28;20231;-70
2023/05/16 02:25:05;;;;;;;36.03;25.67;;;;;;;16.21;59.41;97132.13;5012342;28;20634;-70
2023/05/16 02:27:30;;;;;;;31.40;24.70;;;;;;;16.20;59.16;97129.69;4999243;28;20266;-70
2023/05/16 02:29:56;;;;;;;31.93;26.33;;;;;;;16.23;59.20;97124.03;5008733;28;20498;-70
2023/05/16 02:32:21;;;;;;;33.70;24.60;;;;;;;16.25;59.15;97127.31;5010212;28;20206;-69
2023/05/16 02:34:47;;;;;;;33.70;26.30;;;;;;;16.25;59.20;97128.13;5008827;28;20204;-70
2023/05/16 02:37:12;;;;;;;32.17;23.70;;;;;;;16.25;59.38;97125.47;5015922;28;20281;-70
2023/05/16 02:39:38;;;;;;;33.93;25.83;;;;;;;16.22;59.21;97131.13;5008631;28;20220;-69
2023/05/16 02:42:04;;;;;;;32.63;25.47;;;;;;;16.24;59.23;97128.31;5008115;28;20192;-71
2023/05/16 02:44:29;;;;;;;34.70;24.57;;;;;;;16.21;59.25;97126.84;5009596;28;20196;-71
2023/05/16 02:46:55;;;;;;;33.63;25.07;;;;;;;16.21;59.18;97126.06;5011859;28;20501;-70
2023/05/16 02:49:20;;;;;;;34.53;25.83;;;;;;;16.23;59.28;97130.13;5021745;28;20181;-71
2023/05/16 02:51:46;;;;;;;33.50;25.00;;;;;;;16.25;59.04;97133.41;5007932;28;20214;-70
2023/05/16 02:54:12;;;;;;;35.00;25.60;;;;;;;16.26;59.25;97139.50;5007672;28;20215;-70
2023/05/16 02:56:37;;;;;;;36.73;27.10;;;;;;;16.21;59.02;97144.56;5013863;28;20430;-70
2023/05/16 02:59:03;;;;;;;36.80;26.27;;;;;;;16.16;59.17;97133.72;5013442;28;20211;-70
2023/05/16 03:01:29;;;;;;;33.93;24.33;;;;;;;16.16;59.43;97133.72;5007086;28;20204;-69
2023/05/16 03:03:54;;;;;;;42.63;27.17;;;;;;;16.17;59.24;97130.06;5025281;28;20191;-69
2023/05/16 03:06:20;;;;;;;39.60;27.50;;;;;;;16.18;58.98;97134.34;5014897;28;20250;-71
2023/05/16 03:08:46;;;;;;;37.20;27.20;;;;;;;16.14;59.09;97131.28;5012541;28;20196;-71
2023/05/16 03:11:11;;;;;;;35.20;26.03;;;;;;;16.16;59.21;97131.91;5015481;28;20204;-70
2023/05/16 03:13:37;;;;;;;38.90;26.73;;;;;;;16.17;59.09;97127.44;5009316;28;20553;-70
2023/05/16 03:16:03;;;;;;;39.77;27.70;;;;;;;16.15;59.15;97132.09;5010654;28;20200;-70
2023/05/16 03:18:29;;;;;;;41.50;28.33;;;;;;;16.15;59.31;97132.09;5017707;28;20192;-70
2023/05/16 03:20:55;;;;;;;38.17;26.60;;;;;;;16.13;59.19;97140.22;5023092;28;21065;-70
2023/05/16 03:23:20;;;;;;;41.87;27.10;;;;;;;16.08;59.21;97129.38;5014383;28;20207;-71
2023/05/16 03:25:46;;;;;;;35.23;27.23;;;;;;;16.00;59.49;97133.00;5014054;28;20431;-69
2023/05/16 03:28:11;;;;;;;39.63;26.13;;;;;;;16.01;59.49;97136.44;5044151;28;20295;-70
2023/05/16 03:30:37;;;;;;;41.30;29.50;;;;;;;16.04;59.33;97131.59;5018898;28;20256;-71
2023/05/16 03:33:03;;;;;;;37.27;27.20;;;;;;;16.07;59.28;97131.22;5023389;28;20298;-71
2023/05/16 03:35:32;;;;;;;39.80;28.07;;;;;;;16.09;59.42;97138.94;5012599;28;20826;-71
2023/05/16 03:37:57;;;;;;;42.13;30.17;;;;;;;16.02;59.31;97138.88;5007172;28;20629;-70
2023/05/16 03:40:23;;;;;;;39.60;29.93;;;;;;;16.02;59.33;97138.06;5010931;28;20552;-70
2023/05/16 03:42:48;;;;;;;48.27;30.43;;;;;;;16.01;59.56;97129.31;5018213;28;20711;-72
2023/05/16 03:45:14;;;;;;;42.17;30.83;;;;;;;15.95;59.51;97132.72;5016748;28;20274;-71
2023/05/16 03:47:39;;;;;;;49.73;30.63;;;;;;;15.95;59.79;97138.81;5007053;28;20200;-70
2023/05/16 03:50:05;;;;;;;41.13;29.10;;;;;;;15.95;59.67;97130.09;5005489;28;20930;-70
2023/05/16 03:52:32;;;;;;;41.13;29.80;;;;;;;15.90;59.88;97137.75;5012981;28;20188;-70
2023/05/16 03:54:57;;;;;;;46.10;31.13;;;;;;;15.90;59.87;97137.75;5022441;28;20437;-74
2023/05/16 03:57:22;;;;;;;43.00;30.87;;;;;;;15.90;59.88;97135.09;5011109;28;20499;-70
2023/05/16 03:59:48;;;;;;;44.73;30.47;;;;;;;15.90;59.80;97140.38;5015630;28;20298;-71
2023/05/16 04:02:13;;;;;;;50.20;33.37;;;;;;;15.87;60.02;97138.13;5011937;28;20291;-70
2023/05/16 04:04:39;;;;;;;42.43;30.47;;;;;;;15.87;59.99;97138.94;5017426;28;20188;-70
2023/05/16 04:07:05;;;;;;;45.70;30.00;;;;;;;15.87;60.29;97148.72;5021374;28;20688;-71
2023/05/16 04:09:30;;;;;;;45.93;30.67;;;;;;;15.86;60.19;97149.72;5005480;28;20212;-71
2023/05/16 04:11:56;;;;;;;47.80;31.23;;;;;;;15.83;60.38;97142.94;5009332;28;20716;-70
2023/05/16 04:14:22;;;;;;;47.80;31.27;;;;;;;15.82;60.39;97143.94;5026627;28;20192;-71
2023/05/16 04:16:48;;;;;;;45.60;31.93;;;;;;;15.83;60.58;97145.56;5012330;28;20245;-70
2023/05/16 04:19:13;;;;;;;46.60;31.27;;;;;;;15.89;60.46;97151.97;5017504;28;20474;-70
2023/05/16 04:21:39;;;;;;;49.23;31.57;;;;;;;15.86;60.56;97155.00;5013432;28;20188;-70
2023/05/16 04:24:05;;;;;;;48.63;33.37;;;;;;;15.86;60.70;97150.53;5005625;28;20196;-72
2023/05/16 04:26:30;;;;;;;48.10;32.23;;;;;;;15.87;60.57;97161.91;5011179;28;20254;-72
2023/05/16 04:28:57;;;;;;;44.67;31.70;;;;;;;15.84;60.61;97162.25;5018255;28;20295;-71
2023/05/16 04:31:24;;;;;;;45.03;31.47;;;;;;;15.86;60.91;97162.94;5008672;28;20243;-71
2023/05/16 04:33:49;;;;;;;54.63;33.17;;;;;;;15.85;60.99;97158.66;5016635;28;20457;-71
2023/05/16 04:36:15;;;;;;;53.07;34.87;;;;;;;15.89;60.89;97160.72;5019908;28;20455;-71
2023/05/16 04:38:40;;;;;;;52.87;33.23;;;;;;;15.89;60.68;97162.53;5010993;28;20767;-70
2023/05/16 04:41:06;;;;;;;48.87;33.10;;;;;;;15.90;61.08;97169.44;5021625;28;20233;-72
2023/05/16 04:43:31;;;;;;;51.50;32.37;;;;;;;15.88;61.29;97164.38;5009107;28;20973;-69
2023/05/16 04:46:00;;;;;;;45.37;31.23;;;;;;;15.90;61.16;97172.09;5017639;28;20195;-71
2023/05/16 04:48:25;;;;;;;49.70;34.30;;;;;;;15.91;61.17;97177.22;5018922;28;20231;-71
2023/05/16 04:50:51;;;;;;;46.93;32.17;;;;;;;15.94;61.19;97174.19;4999268;28;20471;-71
2023/05/16 04:53:16;;;;;;;48.23;32.27;;;;;;;15.97;61.16;97175.66;5016306;28;20199;-69
2023/05/16 04:55:42;;;;;;;50.33;33.27;;;;;;;16.02;61.19;97175.06;5020255;28;20201;-71
2023/05/16 04:58:07;;;;;;;50.30;31.80;;;;;;;16.02;61.08;97175.88;4996614;28;20611;-70
2023/05/16 05:00:33;;;;;;;49.87;33.20;;;;;;;16.06;60.87;97179.81;5013624;28;20647;-71
2023/05/16 05:02:58;;;;;;;48.93;33.93;;;;;;;16.07;60.68;97178.78;4997164;28;20203;-69
2023/05/16 05:05:24;;;;;;;46.30;31.13;;;;;;;16.05;60.83;97180.00;4998735;28;20188;-70
2023/05/16 05:07:49;;;;;;;51.93;33.27;;;;;;;16.10;60.93;97186.34;5008479;28;20558;-71
2023/05/16 05:10:15;;;;;;;44.93;31.10;;;;;;;16.12;60.85;97191.44;4989775;28;20216;-70
2023/05/16 05:12:40;;;;;;;45.53;31.33;;;;;;;16.14;60.81;97184.16;5019042;28;20216;-69
2023/05/16 05:15:06;;;;;;;52.63;34.27;;;;;;;16.13;60.61;97187.78;5014831;28;20669;-72
2023/05/16 05:17:32;;;;;;;48.43;31.73;;;;;;;16.13;60.57;97193.09;5006040;28;20223;-71
2023/05/16 05:19:58;;;;;;;46.90;31.67;;;;;;;16.11;60.72;97185.34;5005570;28;20466;-70
2023/05/16 05:22:23;;;;;;;43.30;30.90;;;;;;;16.13;60.77;97185.97;5015761;28;20287;-70
2023/05/16 05:24:49;;;;;;;47.60;31.07;;;;;;;16.17;60.59;97185.59;5016690;28;20192;-70
2023/05/16 05:27:14;;;;;;;46.30;31.50;;;;;;;16.19;60.79;97181.75;5019868;28;20184;-72
2023/05/16 05:29:40;;;;;;;53.47;32.87;;;;;;;16.21;60.49;97186.84;5020480;28;20835;-70
2023/05/16 05:32:07;;;;;;;54.10;32.70;;;;;;;16.22;60.43;97191.94;5017060;28;20227;-71
2023/05/16 05:34:32;;;;;;;48.60;31.70;;;;;;;16.23;60.67;97187.50;5017212;28;21523;-70
2023/05/16 05:36:58;;;;;;;50.53;34.90;;;;;;;16.28;60.58;97185.09;5006341;28;20937;-71
2023/05/16 05:39:23;;;;;;;47.50;32.10;;;;;;;16.31;60.55;97190.00;5023679;28;20214;-71
2023/05/16 05:41:49;;;;;;;51.17;32.10;;;;;;;16.31;60.47;97190.00;5016790;28;20246;-71
2023/05/16 05:44:14;;;;;;;45.93;30.57;;;;;;;16.31;60.54;97190.00;5018898;28;20199;-71
2023/05/16 05:46:40;;;;;;;49.13;32.60;;;;;;;16.32;60.38;97190.84;5011841;28;20197;-70
2023/05/16 05:49:05;;;;;;;45.67;32.40;;;;;;;16.29;60.43;97197.31;5015958;28;20249;-70
2023/05/16 05:51:31;;;;;;;46.53;32.40;;;;;;;16.27;59.98;97199.31;5017740;28;20301;-69
2023/05/16 05:53:57;;;;;;;44.73;31.07;;;;;;;16.21;60.30;97200.06;5010035;28;20192;-71
2023/05/16 05:56:23;;;;;;;47.63;33.53;;;;;;;16.18;60.54;97201.28;5047350;28;20263;-69
2023/05/16 05:58:49;;;;;;;48.50;32.00;;;;;;;16.20;60.57;97209.00;4995727;28;20212;-68
2023/05/16 06:01:15;;;;;;;48.70;32.10;;;;;;;16.16;60.17;97207.75;5018162;28;20553;-69
2023/05/16 06:03:41;;;;;;;44.47;30.13;;;;;;;16.03;60.51;97208.44;5012704;28;20513;-69
2023/05/16 06:06:07;;;;;;;45.90;31.53;;;;;;;16.03;60.70;97219.81;5017213;28;20215;-69
2023/05/16 06:08:33;;;;;;;47.90;32.63;;;;;;;16.04;60.84;97212.72;5016484;28;20466;-70
2023/05/16 06:10:58;;;;;;;39.40;28.60;;;;;;;16.01;60.78;97211.25;5013866;28;20682;-69
2023/05/16 06:13:24;;;;;;;44.93;31.40;;;;;;;15.88;61.07;97214.56;5014836;28;20299;-68
2023/05/16 06:15:50;;;;;;;47.30;30.90;;;;;;;15.85;61.42;97217.59;5015835;28;20548;-70
2023/05/16 06:18:16;;;;;;;39.07;29.67;;;;;;;15.88;61.46;97222.50;5016137;28;20196;-70
2023/05/16 06:20:41;;;;;;;44.10;31.13;;;;;;;15.91;61.26;97226.59;5008773;28;20521;-70
2023/05/16 06:23:07;;;;;;;44.60;28.97;;;;;;;15.96;61.31;97208.38;5008565;28;20235;-70
2023/05/16 06:25:32;;;;;;;38.27;28.17;;;;;;;16.06;61.22;97219.44;5015099;28;20215;-70
2023/05/16 06:27:58;;;;;;;38.57;28.10;;;;;;;16.05;60.84;97217.81;5008377;28;20223;-71
2023/05/16 06:30:23;;;;;;;38.53;28.80;;;;;;;16.02;60.68;97223.47;5009900;28;20219;-71
2023/05/16 06:32:49;;;;;;;39.70;28.97;;;;;;;16.13;60.28;97233.53;5016874;28;20255;-70
2023/05/16 06:35:14;;;;;;;40.93;28.83;;;;;;;16.06;60.29;97232.66;5013650;28;20279;-69
2023/05/16 06:37:40;;;;;;;40.90;27.43;;;;;;;16.10;60.25;97236.59;5012730;28;20196;-71
2023/05/16 06:40:06;;;;;;;39.00;28.23;;;;;;;16.06;60.44;97235.31;5008221;28;21036;-70
2023/05/16 06:42:31;;;;;;;38.80;28.30;;;;;;;16.01;60.45;97232.41;5007717;28;20192;-72
2023/05/16 06:44:57;;;;;;;37.27;27.90;;;;;;;16.02;60.58;97239.31;5014906;28;20435;-71
2023/05/16 06:47:22;;;;;;;43.20;28.10;;;;;;;16.01;60.66;97242.97;5007706;28;20274;-72
2023/05/16 06:49:48;;;;;;;39.03;26.10;;;;;;;16.02;60.89;97233.22;5007442;28;20686;-71
2023/05/16 06:52:13;;;;;;;38.70;26.80;;;;;;;15.96;60.56;97226.88;5008777;28;20189;-72
2023/05/16 06:54:39;;;;;;;36.33;25.43;;;;;;;15.95;60.20;97233.16;5010261;28;20274;-73
2023/05/16 06:57:05;;;;;;;41.27;26.90;;;;;;;15.99;60.02;97238.88;5014775;28;20229;-71
2023/05/16 06:59:31;;;;;;;37.70;27.07;;;;;;;15.92;60.38;97239.63;5021155;28;20318;-74
2023/05/16 07:01:56;;;;;;;33.93;25.73;;;;;;;15.90;60.33;97238.16;5013506;28;20453;-72
2023/05/16 07:04:22;;;;;;;35.60;26.30;;;;;;;15.90;60.64;97246.09;5019571;28;20229;-72
2023/05/16 07:06:47;;;;;;;34.93;25.50;;;;;;;15.88;60.97;97246.28;5011998;28;20220;-71
2023/05/16 07:09:13;;;;;;;35.80;23.93;;;;;;;15.84;61.01;97246.81;5015061;28;20200;-71
2023/05/16 07:11:38;;;;;;;32.80;24.93;;;;;;;15.85;61.21;97243.19;5013900;28;20310;-72
2023/05/16 07:14:04;;;;;;;34.57;25.07;;;;;;;15.82;60.79;97250.47;5016275;28;20284;-72
2023/05/16 07:16:29;;;;;;;34.30;25.47;;;;;;;15.84;60.69;97244.19;5021556;28;20599;-72
2023/05/16 07:18:55;;;;;;;33.97;24.00;;;;;;;15.81;60.87;97243.53;5016796;28;20211;-72
2023/05/16 07:21:20;;;;;;;31.47;24.23;;;;;;;15.84;60.92;97249.47;5021199;28;20219;-73
2023/05/16 07:23:45;;;;;;;31.40;23.20;;;;;;;15.81;60.80;97248.81;5013702;28;20283;-71
2023/05/16 07:26:11;;;;;;;31.93;23.30;;;;;;;15.80;60.79;97249.00;5010767;28;20234;-72
2023/05/16 07:28:36;;;;;;;24.83;19.83;;;;;;;15.82;60.73;97250.47;5015084;28;20927;-74
2023/05/16 07:31:02;;;;;;;26.73;19.70;;;;;;;15.85;60.30;97259.88;5015062;28;20295;-69
2023/05/16 07:33:27;;;;;;;24.40;19.40;;;;;;;15.84;60.18;97252.91;5007842;28;20239;-73
2023/05/16 07:35:53;;;;;;;25.40;20.17;;;;;;;15.89;60.23;97260.31;5048132;28;20214;-72
2023/05/16 07:38:20;;;;;;;25.07;18.87;;;;;;;15.81;59.35;97264.66;5043588;28;20283;-73
2023/05/16 07:40:45;;;;;;;23.60;19.10;;;;;;;15.86;59.38;97256.22;5019555;28;20213;-72
2023/05/16 07:43:11;;;;;;;22.53;18.50;;;;;;;15.88;59.30;97270.06;5016221;28;20494;-72
2023/05/16 07:45:37;;;;;;;24.73;17.90;;;;;;;15.89;59.23;97265.59;5015093;28;20227;-71
2023/05/16 07:48:02;;;;;;;23.23;17.70;;;;;;;15.90;59.28;97273.34;5018238;28;20192;-72
2023/05/16 07:50:28;;;;;;;19.67;15.73;;;;;;;15.93;59.13;97280.09;5011263;28;20224;-72
2023/05/16 07:52:53;;;;;;;20.20;15.33;;;;;;;15.96;59.31;97274.44;5017518;28;20250;-73
2023/05/16 07:55:20;;;;;;;21.27;15.73;;;;;;;16.02;59.02;97271.03;5011348;28;20901;-72
2023/05/16 07:57:47;;;;;;;18.50;15.63;;;;;;;16.09;59.07;97266.66;5003296;28;20223;-73
2023/05/16 08:00:13;;;;;;;20.50;17.13;;;;;;;16.06;58.73;97274.97;5015963;28;20474;-71
2023/05/16 08:02:39;;;;;;;29.10;17.87;;;;;;;16.05;59.04;97262.75;5013860;28;20454;-72
2023/05/16 08:05:06;;;;;;;21.87;18.10;;;;;;;16.10;59.19;97272.75;5020272;28;20423;-72
2023/05/16 08:07:32;;;;;;;23.77;19.13;;;;;;;16.19;59.29;97270.81;5030234;28;20458;-72
2023/05/16 08:09:57;;;;;;;26.10;18.50;;;;;;;16.24;59.24;97271.91;5018243;28;20532;-73
2023/05/16 08:12:23;;;;;;;24.20;17.67;;;;;;;16.26;58.92;97275.19;5014226;28;20551;-72
2023/05/16 08:14:49;;;;;;;23.07;17.70;;;;;;;16.26;58.74;97282.28;5017558;28;20196;-73
2023/05/16 08:17:14;;;;;;;25.30;17.23;;;;;;;16.25;58.59;97278.84;5016058;28;20188;-72
2023/05/16 08:19:40;;;;;;;19.63;16.60;;;;;;;16.31;58.58;97274.63;5011030;28;20663;-72
2023/05/16 08:22:06;;;;;;;21.37;17.97;;;;;;;16.23;58.86;97272.09;5019577;28;20688;-72
2023/05/16 08:24:32;;;;;;;23.47;18.47;;;;;;;16.15;59.07;97280.97;5017716;28;20227;-73
2023/05/16 08:26:57;;;;;;;24.70;18.77;;;;;;;16.13;59.20;97285.59;5022995;28;20881;-73
2023/05/16 08:29:23;;;;;;;22.87;17.30;;;;;;;16.12;59.20;97287.44;5011006;28;20832;-72
2023/05/16 08:31:48;;;;;;;24.07;17.60;;;;;;;16.12;59.15;97298.03;5014102;28;20192;-71
2023/05/16 08:34:14;;;;;;;24.40;18.63;;;;;;;16.08;59.29;97295.91;5019018;28;20231;-72
2023/05/16 08:36:40;;;;;;;22.23;18.47;;;;;;;16.04;59.41;97306.03;5012465;28;20192;-72
2023/05/16 08:39:06;;;;;;;18.23;15.47;;;;;;;15.97;59.60;97295.38;5012794;28;21007;-71
2023/05/16 08:41:32;;;;;;;30.70;17.00;;;;;;;15.96;59.03;97303.50;5017014;28;20701;-72
2023/05/16 08:43:57;;;;;;;18.57;16.03;;;;;;;15.94;59.38;97294.94;5012732;28;20475;-72
2023/05/16 08:46:23;;;;;;;17.10;14.90;;;;;;;15.97;58.84;97305.16;5045910;28;20649;-71
2023/05/16 08:48:52;;;;;;;17.33;14.27;;;;;;;15.92;58.35;97302.22;5014481;28;20184;-71
2023/05/16 08:51:19;;;;;;;18.67;13.83;;;;;;;15.94;58.33;97314.25;5015536;28;20226;-71
2023/05/16 08:53:53;;;;;;;17.50;14.33;;;;;;;16.00;57.87;97312.72;5044441;28;20437;-72
2023/05/16 08:56:21;;;;;;;19.33;15.20;;;;;;;15.93;57.54;97317.09;5008729;28;20434;-71
2023/05/16 08:58:47;;;;;;;17.87;14.57;;;;;;;15.91;57.62;97316.44;5008262;28;20442;-71
2023/05/16 09:01:12;;;;;;;18.77;15.40;;;;;;;15.87;57.94;97321.28;5014423;28;20489;-71
2023/05/16 09:03:38;;;;;;;17.57;15.43;;;;;;;15.78;58.18;97317.06;5033802;28;20805;-72
2023/05/16 09:06:05;;;;;;;19.73;15.50;;;;;;;15.60;59.28;97315.59;5008250;28;20188;-72
2023/05/16 09:08:30;;;;;;;18.50;14.83;;;;;;;15.74;59.62;97323.72;5012896;28;20188;-72
2023/05/16 09:10:56;;;;;;;21.30;16.10;;;;;;;15.75;59.96;97312.16;5008332;28;21027;-73
2023/05/16 09:13:21;;;;;;;23.67;18.23;;;;;;;15.73;60.44;97317.63;5010496;28;20184;-73
2023/05/16 09:16:10;;;;;;;21.80;17.03;;;;;;;15.75;60.49;97317.44;5013515;28;20191;-73
2023/05/16 09:18:36;;;;;;;23.13;16.67;;;;;;;15.74;60.42;97319.25;5046306;28;20185;-74
2023/05/16 09:21:03;;;;;;;26.80;19.50;;;;;;;15.67;60.70;97320.97;5017041;28;20451;-72
2023/05/16 09:23:29;;;;;;;19.83;17.00;;;;;;;15.68;61.00;97312.06;5012272;28;20455;-72
2023/05/16 09:25:56;;;;;;;24.03;18.60;;;;;;;15.69;61.02;97315.53;5021042;28;20804;-73
2023/05/16 09:28:22;;;;;;;22.97;18.53;;;;;;;15.79;61.39;97314.22;5014313;28;20704;-72
2023/05/16 09:30:48;;;;;;;24.97;18.83;;;;;;;15.94;61.71;97313.44;5011266;28;20476;-73
2023/05/16 09:33:13;;;;;;;25.93;19.00;;;;;;;16.04;61.67;97310.53;5014484;28;20530;-71
2023/05/16 09:35:39;;;;;;;27.50;20.60;;;;;;;16.10;61.59;97310.59;5009437;28;20271;-72
2023/05/16 09:38:05;;;;;;;29.80;19.23;;;;;;;16.20;61.04;97314.78;5014488;28;20184;-71
2023/05/16 09:40:30;;;;;;;26.60;21.07;;;;;;;16.30;60.50;97315.28;5013357;28;20216;-74
2023/05/16 09:43:05;;;;;;;32.40;21.13;;;;;;;16.38;59.98;97311.72;5010992;28;20214;-73
2023/05/16 09:45:32;;;;;;;26.27;19.80;;;;;;;16.33;59.47;97309.63;5014544;28;20871;-72
2023/05/16 09:48:06;;;;;;;26.00;19.90;;;;;;;16.49;59.45;97307.78;4993643;28;20466;-72
2023/05/16 09:50:35;;;;;;;26.53;19.50;;;;;;;16.53;59.18;97301.09;5010554;28;20477;-72
2023/05/16 09:53:01;;;;;;;27.07;20.33;;;;;;;16.63;59.02;97303.44;5011562;28;20521;-73
2023/05/16 09:55:27;;;;;;;35.83;20.43;;;;;;;16.62;58.47;97299.13;5008194;28;20463;-72
2023/05/16 09:57:52;;;;;;;24.77;18.47;;;;;;;16.71;58.24;97303.28;5020948;28;20326;-72
2023/05/16 10:00:18;;;;;;;23.77;19.27;;;;;;;16.76;57.51;97308.03;5008775;28;20239;-70
2023/05/16 10:02:44;;;;;;;23.73;19.37;;;;;;;16.79;57.43;97300.53;5052844;28;20196;-73
2023/05/16 10:05:09;;;;;;;27.87;19.70;;;;;;;16.77;57.76;97305.19;5022559;28;20191;-72
2023/05/16 10:07:36;;;;;;;25.90;19.10;;;;;;;16.76;57.37;97303.56;5018199;28;20188;-72
2023/05/16 10:10:07;;;;;;;26.17;19.10;;;;;;;16.86;57.85;97296.13;5014353;28;20769;-71
2023/05/16 10:12:33;;;;;;;23.87;18.47;;;;;;;16.96;57.89;97295.81;5016848;28;20446;-72
2023/05/16 10:15:04;;;;;;;26.30;18.90;;;;;;;17.11;57.16;97298.38;5019359;28;20466;-75
2023/05/16 10:17:33;;;;;;;24.80;17.03;;;;;;;17.22;56.81;97299.69;5020766;28;20881;-72
2023/05/16 10:20:06;;;;;;;22.47;17.80;;;;;;;17.41;56.04;97289.41;5019690;28;21190;-71
2023/05/16 10:22:34;;;;;;;27.43;16.57;;;;;;;17.48;54.79;97282.34;5019358;28;20452;-73
2023/05/16 10:25:06;;;;;;;20.73;16.23;;;;;;;17.59;54.19;97281.81;5011208;28;20482;-72
2023/05/16 10:27:32;;;;;;;22.97;16.67;;;;;;;17.67;53.79;97291.44;5013071;28;20427;-74
2023/05/16 10:29:58;;;;;;;19.60;15.53;;;;;;;17.77;53.68;97291.06;5009875;28;20482;-72
2023/05/16 10:32:24;;;;;;;18.37;14.97;;;;;;;17.84;53.25;97297.22;5016362;28;20529;-71
2023/05/16 10:34:49;;;;;;;22.03;16.37;;;;;;;17.82;52.82;97291.28;5009869;28;20246;-73
2023/05/16 10:37:15;;;;;;;20.10;16.07;;;;;;;17.75;52.98;97298.41;5021395;28;20920;-71
2023/05/16 10:39:41;;;;;;;24.20;15.37;;;;;;;17.95;52.75;97295.84;5049088;28;20595;-73
2023/05/16 10:42:06;;;;;;;21.47;15.70;;;;;;;18.06;52.49;97291.81;5019987;28;20211;-73
2023/05/16 10:44:32;;;;;;;16.70;14.73;;;;;;;17.94;53.11;97300.31;5018858;28;20206;-72
2023/05/16 10:46:59;;;;;;;19.97;14.37;;;;;;;17.86;53.28;97297.84;5016924;28;20199;-73
2023/05/16 10:49:25;;;;;;;23.33;15.40;;;;;;;17.72;53.96;97301.44;5028076;28;20195;-73
2023/05/16 10:52:11;;;;;;;19.83;15.10;;;;;;;17.57;55.44;97299.72;5041401;28;20471;-72
2023/05/16 10:54:49;;;;;;;22.63;14.93;;;;;;;17.37;57.02;97310.19;5010229;28;20430;-70
2023/05/16 10:57:22;;;;;;;28.20;17.57;;;;;;;17.16;58.29;97306.59;5007797;28;20424;-72
2023/05/16 10:59:49;;;;;;;22.07;16.37;;;;;;;17.10;58.56;97315.28;5018279;28;20466;-72
2023/05/16 11:02:27;;;;;;;25.03;16.00;;;;;;;16.89;59.56;97308.13;5012340;28;20446;-72
2023/05/16 11:04:54;;;;;;;21.47;14.30;;;;;;;16.71;60.02;97306.78;5016181;28;20430;-72
2023/05/16 11:07:22;;;;;;;20.03;14.43;;;;;;;16.55;59.80;97314.94;5015773;28;20886;-71
2023/05/16 11:10:04;;;;;;;20.60;13.20;;;;;;;16.42;60.66;97315.63;5014215;28;20447;-73
2023/05/16 11:12:47;;;;;;;21.03;14.07;;;;;;;16.40;61.46;97325.59;5035932;28;20437;-73
2023/05/16 11:15:18;;;;;;;18.50;12.50;;;;;;;16.02;62.67;97329.19;5018907;28;20436;-72